Time;durP1;ratioP1;P1;durP2;ratioP2;P2;SDS_P1;SDS_P2;PMS_P1;PMS_P2;Temp;Humidity;BMP_temperature;BMP_pressure;BME280_temperature;BME280_humidity;BME280_pressure;Samples;Min_cycle;Max_cycle;Signal;HPM_P1;HPM_P2
2023/12/06 00:02:03;;;;;;;38.20;20.43;;;2.10;99.90;;;;;;6210798;23;20405;-64
2023/12/06 00:04:31;;;;;;;42.70;20.03;;;2.10;99.90;;;;;;6209323;23;20516;-64
2023/12/06 00:06:58;;;;;;;43.37;21.97;;;2.10;99.90;;;;;;6208723;23;20480;-63
2023/12/06 00:09:25;;;;;;;33.93;19.23;;;2.10;99.90;;;;;;6208978;23;20404;-63
2023/12/06 00:11:51;;;;;;;36.53;18.50;;;2.10;99.90;;;;;;6208856;23;20459;-63
2023/12/06 00:14:18;;;;;;;40.37;19.67;;;2.10;99.90;;;;;;6208942;23;20408;-63
2023/12/06 00:16:45;;;;;;;34.90;20.67;;;2.10;99.90;;;;;;6209070;23;20384;-62
2023/12/06 00:19:14;;;;;;;40.63;22.00;;;2.20;99.90;;;;;;6209259;23;20389;-62
2023/12/06 00:21:41;;;;;;;44.33;22.63;;;2.20;99.90;;;;;;6210232;23;20409;-63
2023/12/06 00:24:09;;;;;;;43.20;22.20;;;2.20;99.90;;;;;;6209860;23;20432;-64
2023/12/06 00:26:39;;;;;;;42.70;20.90;;;2.20;99.90;;;;;;6210580;23;20422;-64
2023/12/06 00:29:06;;;;;;;36.47;18.50;;;2.10;99.90;;;;;;6209973;23;20456;-64
2023/12/06 00:31:33;;;;;;;37.13;19.00;;;2.10;99.90;;;;;;6209671;23;20393;-61
2023/12/06 00:34:04;;;;;;;44.57;18.67;;;2.10;99.90;;;;;;6210111;23;20404;-64
2023/12/06 00:36:34;;;;;;;44.10;22.07;;;2.10;99.90;;;;;;6210203;23;20467;-63
2023/12/06 00:39:01;;;;;;;54.57;23.50;;;2.00;99.90;;;;;;6210531;23;20412;-65
2023/12/06 00:41:28;;;;;;;38.63;20.60;;;2.00;99.90;;;;;;6209824;23;20455;-65
2023/12/06 00:43:55;;;;;;;39.87;22.13;;;2.00;99.90;;;;;;6210598;23;20369;-63
2023/12/06 00:46:24;;;;;;;40.37;21.10;;;2.00;99.90;;;;;;6209944;23;20384;-62
2023/12/06 00:48:51;;;;;;;38.80;21.90;;;2.00;99.90;;;;;;6210419;23;20449;-62
2023/12/06 00:51:18;;;;;;;37.70;21.07;;;1.90;99.90;;;;;;6210129;23;20428;-64
2023/12/06 00:53:47;;;;;;;40.97;19.83;;;1.90;99.90;;;;;;6209738;23;20939;-63
2023/12/06 00:56:17;;;;;;;43.37;21.40;;;2.00;99.90;;;;;;6210462;23;20416;-65
2023/12/06 00:58:49;;;;;;;42.93;21.10;;;2.00;99.90;;;;;;6209851;23;20386;-64
2023/12/06 01:01:18;;;;;;;49.60;24.90;;;2.10;99.90;;;;;;6210065;23;20389;-64
2023/12/06 01:03:45;;;;;;;44.97;21.27;;;2.10;99.90;;;;;;6210299;23;20428;-65
2023/12/06 01:06:11;;;;;;;41.77;21.97;;;2.10;99.90;;;;;;6210096;23;20417;-65
2023/12/06 01:08:38;;;;;;;55.30;23.37;;;2.20;99.90;;;;;;6210062;23;20425;-64
2023/12/06 01:11:07;;;;;;;38.27;18.00;;;2.10;99.90;;;;;;6210191;23;20405;-64
2023/12/06 01:13:34;;;;;;;42.90;21.77;;;2.20;99.90;;;;;;6209892;23;20392;-65
2023/12/06 01:16:01;;;;;;;44.10;23.67;;;2.20;99.90;;;;;;6209953;23;20397;-63
2023/12/06 01:18:28;;;;;;;42.70;22.57;;;2.20;99.90;;;;;;6209987;23;20436;-64
2023/12/06 01:20:55;;;;;;;35.40;19.97;;;2.20;99.90;;;;;;6211072;23;20416;-64
2023/12/06 01:23:22;;;;;;;37.97;19.57;;;2.20;99.90;;;;;;6210824;23;20444;-64
2023/12/06 01:25:48;;;;;;;41.93;21.20;;;2.20;99.90;;;;;;6210942;23;20400;-62
2023/12/06 01:28:17;;;;;;;42.87;21.73;;;2.20;99.90;;;;;;6211023;23;20436;-65
2023/12/06 01:30:45;;;;;;;42.93;21.20;;;2.20;99.90;;;;;;6211234;23;20432;-64
2023/12/06 01:33:12;;;;;;;44.03;21.03;;;2.60;99.90;;;;;;6211226;23;20416;-62
2023/12/06 01:35:39;;;;;;;31.07;17.43;;;2.20;99.90;;;;;;6210512;23;20405;-65
2023/12/06 01:38:06;;;;;;;37.63;19.60;;;2.20;99.90;;;;;;6210608;23;20401;-62
2023/12/06 01:40:35;;;;;;;47.77;21.07;;;2.20;99.90;;;;;;6210140;23;20397;-63
2023/12/06 01:43:02;;;;;;;42.80;22.07;;;2.20;99.90;;;;;;6210270;23;20461;-64
2023/12/06 01:45:30;;;;;;;41.77;20.50;;;2.20;99.90;;;;;;6209612;23;20421;-65
2023/12/06 01:47:58;;;;;;;43.37;21.50;;;2.20;99.90;;;;;;6209412;23;20435;-64
2023/12/06 01:50:26;;;;;;;36.07;20.37;;;2.20;99.90;;;;;;6209980;23;20408;-63
2023/12/06 01:52:57;;;;;;;37.70;19.87;;;2.20;99.90;;;;;;6209925;23;20420;-64
2023/12/06 01:55:26;;;;;;;43.07;22.17;;;2.20;99.90;;;;;;6209944;23;20435;-63
2023/12/06 01:57:54;;;;;;;44.43;22.47;;;2.30;99.90;;;;;;6211020;23;20416;-63
2023/12/06 02:00:21;;;;;;;40.60;19.53;;;2.30;99.90;;;;;;6209782;23;20416;-62
2023/12/06 02:02:49;;;;;;;45.87;21.00;;;2.30;99.90;;;;;;6210283;23;20405;-64
2023/12/06 02:05:17;;;;;;;37.50;20.07;;;2.30;99.90;;;;;;6211268;23;20405;-63
2023/12/06 02:07:45;;;;;;;34.10;19.57;;;2.30;99.90;;;;;;6212611;23;20428;-62
2023/12/06 02:10:12;;;;;;;47.27;21.00;;;2.30;99.90;;;;;;6212570;23;20413;-65
2023/12/06 02:12:38;;;;;;;41.93;20.57;;;2.30;99.90;;;;;;6212832;23;20481;-64
2023/12/06 02:15:06;;;;;;;45.90;22.07;;;2.30;99.90;;;;;;6213710;23;20404;-63
2023/12/06 02:17:37;;;;;;;34.50;21.10;;;2.30;99.90;;;;;;6214367;23;20404;-62
2023/12/06 02:20:07;;;;;;;51.90;23.37;;;2.30;99.90;;;;;;6214427;23;20425;-58
2023/12/06 02:22:35;;;;;;;45.83;21.77;;;2.30;99.90;;;;;;6214317;23;20401;-60
2023/12/06 02:25:05;;;;;;;39.70;21.90;;;2.30;99.90;;;;;;6213753;23;20393;-61
2023/12/06 02:27:33;;;;;;;39.90;20.93;;;2.30;99.90;;;;;;6212327;23;20420;-61
2023/12/06 02:30:00;;;;;;;43.33;24.07;;;2.30;99.90;;;;;;6213022;23;20403;-65
2023/12/06 02:32:27;;;;;;;35.23;19.00;;;2.30;99.90;;;;;;6211806;23;20435;-64
2023/12/06 02:34:55;;;;;;;37.23;20.20;;;2.30;99.90;;;;;;6211626;23;20412;-64
2023/12/06 02:37:24;;;;;;;43.20;21.57;;;2.20;99.90;;;;;;6211048;23;20428;-63
2023/12/06 02:39:53;;;;;;;37.80;21.27;;;2.20;99.90;;;;;;6211044;23;20380;-66
2023/12/06 02:42:20;;;;;;;42.43;20.27;;;2.20;99.90;;;;;;6210791;23;20417;-64
2023/12/06 02:44:52;;;;;;;45.10;19.40;;;2.20;99.90;;;;;;6211056;23;20464;-63
2023/12/06 02:47:21;;;;;;;36.20;20.40;;;2.20;99.90;;;;;;6211115;23;20393;-64
2023/12/06 02:49:48;;;;;;;36.67;18.80;;;2.20;99.90;;;;;;6210775;23;20436;-65
2023/12/06 02:52:17;;;;;;;41.97;19.80;;;2.20;99.90;;;;;;6211777;23;20381;-64
2023/12/06 02:54:45;;;;;;;41.27;20.50;;;2.20;99.90;;;;;;6211108;23;20412;-63
2023/12/06 02:57:15;;;;;;;40.73;19.80;;;2.20;99.90;;;;;;6211377;23;20540;-63
2023/12/06 02:59:41;;;;;;;30.47;18.53;;;2.30;99.90;;;;;;6210937;23;20413;-64
2023/12/06 03:02:10;;;;;;;34.70;17.40;;;2.30;99.90;;;;;;6210968;23;20425;-63
2023/12/06 03:04:36;;;;;;;40.47;21.43;;;2.30;99.90;;;;;;6210927;23;20388;-65
2023/12/06 03:07:05;;;;;;;41.10;19.37;;;2.20;99.90;;;;;;6211220;23;20471;-64
2023/12/06 03:09:34;;;;;;;43.20;20.57;;;2.20;99.90;;;;;;6210844;23;20934;-64
2023/12/06 03:12:01;;;;;;;39.77;18.90;;;2.20;99.90;;;;;;6210845;23;20405;-63
2023/12/06 03:14:28;;;;;;;30.73;19.37;;;2.30;99.90;;;;;;6210890;23;20429;-64
2023/12/06 03:16:55;;;;;;;45.73;21.27;;;2.30;99.90;;;;;;6211045;23;20409;-63
2023/12/06 03:19:26;;;;;;;36.53;18.63;;;2.30;99.90;;;;;;6211097;23;20425;-64
2023/12/06 03:21:53;;;;;;;41.13;20.40;;;2.30;99.90;;;;;;6210838;23;20373;-64
2023/12/06 03:24:20;;;;;;;40.90;20.30;;;2.30;99.90;;;;;;6211101;23;20397;-66
2023/12/06 03:26:47;;;;;;;38.50;19.77;;;2.30;99.90;;;;;;6210601;23;20428;-63
2023/12/06 03:29:14;;;;;;;35.13;16.90;;;2.30;99.90;;;;;;6210978;23;20496;-62
2023/12/06 03:31:41;;;;;;;33.97;21.37;;;2.30;99.90;;;;;;6211356;23;20401;-63
2023/12/06 03:34:08;;;;;;;36.43;19.60;;;2.30;99.90;;;;;;6211647;23;20389;-65
2023/12/06 03:36:37;;;;;;;52.70;20.17;;;2.30;99.90;;;;;;6211155;23;20417;-64
2023/12/06 03:39:04;;;;;;;39.63;20.80;;;2.30;99.90;;;;;;6210689;23;20432;-65
2023/12/06 03:41:31;;;;;;;34.57;18.57;;;2.30;99.90;;;;;;6211591;23;20381;-64
2023/12/06 03:44:00;;;;;;;40.20;21.30;;;2.30;99.90;;;;;;6211148;23;20404;-64
2023/12/06 03:46:27;;;;;;;28.33;15.70;;;2.20;99.90;;;;;;6211562;23;20670;-66
2023/12/06 03:48:54;;;;;;;46.13;21.60;;;2.20;99.90;;;;;;6211285;23;20440;-64
2023/12/06 03:51:21;;;;;;;39.03;21.33;;;2.20;99.90;;;;;;6211247;23;20436;-61
2023/12/06 03:53:49;;;;;;;35.07;19.83;;;2.10;99.90;;;;;;6211416;23;20409;-65
2023/12/06 03:56:16;;;;;;;48.57;20.37;;;2.10;99.90;;;;;;6211205;23;20404;-63
2023/12/06 03:58:46;;;;;;;38.80;21.10;;;2.10;99.90;;;;;;6211123;23;20433;-61
2023/12/06 04:01:13;;;;;;;48.83;22.10;;;2.10;99.90;;;;;;6211471;23;20401;-65
2023/12/06 04:03:41;;;;;;;47.80;21.30;;;2.10;99.90;;;;;;6210373;23;20432;-63
2023/12/06 04:06:08;;;;;;;44.60;21.37;;;2.20;99.90;;;;;;6210551;23;20409;-64
2023/12/06 04:08:38;;;;;;;43.27;21.33;;;2.20;99.90;;;;;;6210149;23;20425;-64
2023/12/06 04:11:06;;;;;;;41.30;20.07;;;2.30;99.90;;;;;;6210525;23;20590;-65
2023/12/06 04:13:33;;;;;;;44.07;21.53;;;2.30;99.90;;;;;;6210476;23;20408;-66
2023/12/06 04:16:00;;;;;;;48.93;21.30;;;2.30;99.90;;;;;;6210109;23;20780;-66
2023/12/06 04:18:27;;;;;;;48.03;22.40;;;2.30;99.90;;;;;;6210858;23;20415;-66
2023/12/06 04:20:54;;;;;;;36.90;19.37;;;2.30;99.90;;;;;;6210882;23;20401;-63
2023/12/06 04:23:20;;;;;;;44.17;21.07;;;2.40;99.90;;;;;;6211320;23;20397;-64
2023/12/06 04:25:49;;;;;;;36.23;18.70;;;2.40;99.90;;;;;;6211301;23;20408;-65
2023/12/06 04:28:17;;;;;;;45.40;20.00;;;2.40;99.90;;;;;;6211305;23;20431;-62
2023/12/06 04:30:44;;;;;;;40.07;21.60;;;2.40;99.90;;;;;;6211976;23;20388;-62
2023/12/06 04:33:14;;;;;;;53.70;21.70;;;2.40;99.90;;;;;;6212013;23;20385;-63
2023/12/06 04:35:41;;;;;;;38.63;20.17;;;2.60;99.90;;;;;;6210760;23;20423;-62
2023/12/06 04:38:08;;;;;;;39.50;17.60;;;2.40;99.90;;;;;;6210530;23;20409;-63
2023/12/06 04:40:35;;;;;;;47.57;20.40;;;2.40;99.90;;;;;;6210100;23;20420;-64
2023/12/06 04:43:02;;;;;;;38.10;20.07;;;2.40;99.90;;;;;;6210023;23;20405;-64
2023/12/06 04:45:30;;;;;;;39.10;20.10;;;2.40;99.90;;;;;;6210046;23;20440;-65
2023/12/06 04:47:57;;;;;;;42.33;20.80;;;2.40;99.90;;;;;;6210163;23;20405;-66
2023/12/06 04:50:24;;;;;;;37.93;19.10;;;2.40;99.90;;;;;;6210236;23;20424;-65
2023/12/06 04:52:51;;;;;;;33.50;19.47;;;2.40;99.90;;;;;;6210480;23;20448;-64
2023/12/06 04:55:18;;;;;;;37.30;21.10;;;2.40;99.90;;;;;;6210193;23;20401;-65
2023/12/06 04:57:45;;;;;;;34.60;19.03;;;2.40;99.90;;;;;;6210224;23;20416;-64
2023/12/06 05:00:13;;;;;;;37.17;18.73;;;2.40;99.90;;;;;;6211049;23;20381;-60
2023/12/06 05:02:41;;;;;;;37.13;20.00;;;2.40;99.90;;;;;;6211008;23;20976;-62
2023/12/06 05:05:10;;;;;;;49.80;23.00;;;2.50;99.90;;;;;;6211035;23;20447;-63
2023/12/06 05:07:37;;;;;;;38.50;19.53;;;2.40;99.90;;;;;;6211806;23;20412;-61
2023/12/06 05:10:04;;;;;;;44.20;19.70;;;2.50;99.90;;;;;;6212320;23;20432;-60
2023/12/06 05:12:31;;;;;;;35.70;19.17;;;2.50;99.90;;;;;;6212380;23;20385;-63
2023/12/06 05:14:58;;;;;;;36.97;20.23;;;2.50;99.90;;;;;;6212296;23;20405;-61
2023/12/06 05:17:25;;;;;;;35.73;20.53;;;2.40;99.90;;;;;;6212627;23;20409;-62
2023/12/06 05:19:54;;;;;;;40.43;20.40;;;2.50;99.90;;;;;;6212795;23;20412;-60
2023/12/06 05:22:21;;;;;;;37.10;21.13;;;2.50;99.90;;;;;;6212890;23;20401;-62
2023/12/06 05:24:48;;;;;;;50.43;20.03;;;2.50;99.90;;;;;;6211779;23;20405;-63
2023/12/06 05:27:15;;;;;;;37.70;20.00;;;2.50;99.90;;;;;;6209674;23;20408;-65
2023/12/06 05:29:44;;;;;;;42.63;21.00;;;2.50;99.90;;;;;;6209635;23;20448;-62
2023/12/06 05:32:11;;;;;;;47.63;21.53;;;2.50;99.90;;;;;;6209963;23;20416;-62
2023/12/06 05:34:39;;;;;;;45.17;20.67;;;2.40;99.90;;;;;;6209554;23;20424;-65
2023/12/06 05:37:10;;;;;;;36.83;20.77;;;2.40;99.90;;;;;;6209821;23;20467;-63
2023/12/06 05:39:37;;;;;;;36.83;18.17;;;2.40;99.90;;;;;;6211559;23;20396;-65
2023/12/06 05:42:04;;;;;;;52.73;20.87;;;2.40;99.90;;;;;;6211962;23;20439;-65
2023/12/06 05:44:34;;;;;;;29.57;18.50;;;2.40;99.90;;;;;;6211807;23;20412;-64
2023/12/06 05:47:02;;;;;;;42.20;21.80;;;2.40;99.90;;;;;;6211424;23;20465;-65
2023/12/06 05:49:29;;;;;;;39.83;20.73;;;2.30;99.90;;;;;;6211213;23;20496;-65
2023/12/06 05:51:55;;;;;;;42.80;22.63;;;2.40;99.90;;;;;;6211499;23;20405;-64
2023/12/06 05:54:24;;;;;;;42.07;22.43;;;2.40;99.90;;;;;;6211412;23;20440;-64
2023/12/06 05:56:51;;;;;;;36.90;18.53;;;2.40;99.90;;;;;;6211351;23;20404;-63
2023/12/06 05:59:18;;;;;;;39.67;19.77;;;2.30;99.90;;;;;;6211448;23;20452;-64
2023/12/06 06:01:44;;;;;;;28.60;18.90;;;2.40;99.90;;;;;;6211510;23;20398;-64
2023/12/06 06:04:11;;;;;;;43.10;21.10;;;2.40;99.90;;;;;;6211516;23;20868;-64
2023/12/06 06:06:38;;;;;;;37.00;18.20;;;2.40;99.90;;;;;;6211529;23;20428;-64
2023/12/06 06:09:06;;;;;;;49.50;23.30;;;2.40;99.90;;;;;;6211680;23;20435;-64
2023/12/06 06:11:34;;;;;;;45.07;21.40;;;2.40;99.90;;;;;;6211552;23;20432;-65
2023/12/06 06:14:01;;;;;;;49.43;20.10;;;2.40;99.90;;;;;;6211040;23;20386;-65
2023/12/06 06:16:28;;;;;;;39.43;21.80;;;2.40;99.90;;;;;;6211689;23;20393;-65
2023/12/06 06:18:55;;;;;;;39.17;21.67;;;2.40;99.90;;;;;;6211831;23;20488;-62
2023/12/06 06:21:22;;;;;;;53.00;22.83;;;2.40;99.90;;;;;;6212658;23;20393;-64
2023/12/06 06:23:53;;;;;;;33.97;18.47;;;2.60;99.90;;;;;;6211524;23;20436;-65
2023/12/06 06:26:19;;;;;;;43.97;20.87;;;2.40;99.90;;;;;;6211480;23;20381;-65
2023/12/06 06:28:48;;;;;;;42.50;21.17;;;2.40;99.90;;;;;;6211729;23;20421;-64
2023/12/06 06:31:15;;;;;;;39.73;21.93;;;2.40;99.90;;;;;;6212479;23;20401;-61
2023/12/06 06:33:41;;;;;;;37.47;20.00;;;2.40;99.90;;;;;;6212131;23;20392;-63
2023/12/06 06:36:09;;;;;;;39.13;22.13;;;2.40;99.90;;;;;;6210912;23;20421;-64
2023/12/06 06:38:37;;;;;;;39.73;20.70;;;2.40;99.90;;;;;;6189477;23;20400;-66
2023/12/06 06:41:04;;;;;;;41.90;21.03;;;2.40;99.90;;;;;;6195905;23;20408;-66
2023/12/06 06:43:31;;;;;;;39.10;21.00;;;2.40;99.90;;;;;;6194817;23;20786;-68
2023/12/06 06:46:00;;;;;;;39.23;19.13;;;2.40;99.90;;;;;;6190374;23;20404;-65
2023/12/06 06:48:27;;;;;;;46.93;21.77;;;2.40;99.90;;;;;;6204563;23;20452;-65
2023/12/06 06:50:54;;;;;;;44.80;21.40;;;2.40;99.90;;;;;;6211308;23;20428;-64
2023/12/06 06:53:21;;;;;;;41.27;21.67;;;2.40;99.90;;;;;;6212205;23;20400;-62
2023/12/06 06:55:48;;;;;;;37.43;19.07;;;2.50;99.90;;;;;;6212282;23;20427;-66
2023/12/06 06:58:15;;;;;;;49.77;23.40;;;2.40;99.90;;;;;;6192768;23;20405;-64
2023/12/06 07:00:42;;;;;;;35.10;21.67;;;2.40;99.90;;;;;;6195576;23;20407;-67
2023/12/06 07:03:11;;;;;;;53.20;20.70;;;2.40;99.90;;;;;;6207895;23;20428;-65
2023/12/06 07:05:41;;;;;;;37.23;17.87;;;2.40;99.90;;;;;;6211239;23;20447;-65
2023/12/06 07:08:09;;;;;;;36.90;20.87;;;2.40;99.90;;;;;;6210682;23;20415;-66
2023/12/06 07:10:38;;;;;;;42.80;21.63;;;2.40;99.90;;;;;;6210796;23;20451;-63
2023/12/06 07:13:05;;;;;;;41.33;20.10;;;2.50;99.90;;;;;;6210451;23;20400;-65
2023/12/06 07:15:32;;;;;;;38.90;20.37;;;2.50;99.90;;;;;;6210202;23;20413;-64
2023/12/06 07:17:59;;;;;;;47.40;20.90;;;2.50;99.90;;;;;;6210672;23;20464;-66
2023/12/06 07:20:28;;;;;;;45.03;20.57;;;2.50;99.90;;;;;;6210283;23;20401;-66
2023/12/06 07:22:57;;;;;;;40.37;19.80;;;2.50;99.90;;;;;;6210616;23;20444;-64
2023/12/06 07:25:23;;;;;;;46.00;21.43;;;2.50;99.90;;;;;;6210699;23;20411;-64
2023/12/06 07:27:50;;;;;;;40.13;19.67;;;2.50;99.90;;;;;;6210357;23;20903;-65
2023/12/06 07:30:17;;;;;;;38.87;19.67;;;2.50;99.90;;;;;;6209118;23;20455;-65
2023/12/06 07:32:44;;;;;;;38.87;22.07;;;2.50;99.90;;;;;;6187067;23;20401;-65
2023/12/06 07:35:12;;;;;;;38.47;20.43;;;2.50;99.90;;;;;;6187532;23;20452;-65
2023/12/06 07:37:41;;;;;;;40.60;22.07;;;2.50;99.90;;;;;;6187578;23;20425;-64
2023/12/06 07:40:11;;;;;;;41.40;22.00;;;2.50;99.90;;;;;;6187459;23;20424;-66
2023/12/06 07:42:38;;;;;;;36.80;19.17;;;2.60;99.90;;;;;;6187636;23;20864;-66
2023/12/06 07:45:05;;;;;;;49.70;21.10;;;2.50;99.90;;;;;;6184966;23;20417;-65
2023/12/06 07:47:32;;;;;;;41.53;19.80;;;2.60;99.90;;;;;;6186597;23;20463;-65
2023/12/06 07:50:00;;;;;;;38.27;21.03;;;2.60;99.90;;;;;;6187228;23;20731;-66
2023/12/06 07:52:26;;;;;;;43.23;20.67;;;2.60;99.90;;;;;;6186709;23;20520;-66
2023/12/06 07:54:55;;;;;;;43.17;22.33;;;2.50;99.90;;;;;;6186960;23;20441;-65
2023/12/06 07:57:23;;;;;;;42.47;22.17;;;2.50;99.90;;;;;;6187240;23;20463;-63
2023/12/06 07:59:50;;;;;;;49.67;19.83;;;2.50;99.90;;;;;;6187049;23;20412;-65
2023/12/06 08:02:17;;;;;;;44.60;19.10;;;2.50;99.90;;;;;;6186691;23;20417;-67
2023/12/06 08:04:43;;;;;;;41.50;20.17;;;2.50;99.90;;;;;;6187015;23;20465;-65
2023/12/06 08:07:10;;;;;;;35.60;19.03;;;2.50;99.90;;;;;;6186620;23;20404;-66
2023/12/06 08:09:39;;;;;;;46.03;22.00;;;2.60;99.90;;;;;;6186298;23;20438;-66
2023/12/06 08:12:08;;;;;;;49.10;20.77;;;2.60;99.90;;;;;;6186699;23;20428;-66
2023/12/06 08:14:35;;;;;;;30.77;19.87;;;2.60;99.90;;;;;;6186887;23;20401;-64
2023/12/06 08:17:02;;;;;;;53.80;23.27;;;2.50;99.90;;;;;;6186934;23;20487;-65
2023/12/06 08:19:29;;;;;;;46.10;21.10;;;2.60;99.90;;;;;;6186897;23;20459;-65
2023/12/06 08:21:56;;;;;;;39.10;22.20;;;2.60;99.90;;;;;;6186674;23;20405;-65
2023/12/06 08:24:23;;;;;;;43.13;20.30;;;2.60;99.90;;;;;;6187033;23;20413;-66
2023/12/06 08:26:50;;;;;;;38.83;19.10;;;2.70;99.90;;;;;;6186844;23;20456;-67
2023/12/06 08:29:19;;;;;;;42.87;20.97;;;2.70;99.90;;;;;;6186655;23;20945;-65
2023/12/06 08:31:46;;;;;;;41.07;19.03;;;2.80;99.90;;;;;;6186627;23;20472;-64
2023/12/06 08:34:12;;;;;;;43.87;21.50;;;2.80;99.90;;;;;;6187077;23;20459;-65
2023/12/06 08:36:39;;;;;;;38.87;19.80;;;2.70;99.90;;;;;;6186934;23;20891;-65
2023/12/06 08:39:06;;;;;;;42.10;19.63;;;2.70;99.90;;;;;;6186464;23;20496;-66
2023/12/06 08:41:35;;;;;;;35.67;18.50;;;2.80;99.90;;;;;;6186526;23;20851;-64
2023/12/06 08:44:04;;;;;;;38.47;19.03;;;2.80;99.90;;;;;;6186915;23;20471;-64
2023/12/06 08:46:32;;;;;;;32.13;19.50;;;2.80;99.90;;;;;;6186891;23;20491;-66
2023/12/06 08:48:59;;;;;;;32.07;17.57;;;2.80;99.90;;;;;;6186658;23;20415;-65
2023/12/06 08:51:27;;;;;;;48.17;19.20;;;2.90;99.90;;;;;;6185978;23;20535;-65
2023/12/06 08:53:54;;;;;;;30.47;16.67;;;2.90;99.90;;;;;;6186320;23;20443;-65
2023/12/06 08:56:21;;;;;;;40.00;20.50;;;2.90;99.90;;;;;;6185487;23;20508;-66
2023/12/06 08:58:48;;;;;;;37.90;19.17;;;2.90;99.90;;;;;;6185293;23;20413;-65
2023/12/06 09:01:15;;;;;;;49.03;25.33;;;2.80;99.90;;;;;;6185732;23;20495;-66
2023/12/06 09:03:43;;;;;;;44.53;20.57;;;2.80;99.90;;;;;;6186120;23;20444;-65
2023/12/06 09:06:10;;;;;;;42.17;19.30;;;2.90;99.90;;;;;;6186910;23;20487;-66
2023/12/06 09:08:38;;;;;;;36.70;22.03;;;2.90;99.90;;;;;;6185641;23;20516;-66
2023/12/06 09:11:05;;;;;;;40.27;18.90;;;2.90;99.90;;;;;;6186203;23;20440;-66
2023/12/06 09:13:32;;;;;;;42.07;21.90;;;2.90;99.90;;;;;;6187281;23;20499;-64
2023/12/06 09:15:59;;;;;;;42.97;20.57;;;2.90;99.90;;;;;;6188451;23;20401;-67
2023/12/06 09:18:26;;;;;;;42.03;19.17;;;3.00;99.90;;;;;;6188636;23;20405;-66
2023/12/06 09:20:55;;;;;;;38.07;18.87;;;3.00;99.90;;;;;;6189054;23;20393;-66
2023/12/06 09:23:25;;;;;;;43.23;21.17;;;3.00;99.90;;;;;;6188496;23;20436;-68
2023/12/06 09:25:52;;;;;;;45.13;19.97;;;3.00;99.90;;;;;;6188876;23;20808;-66
2023/12/06 09:28:19;;;;;;;48.17;21.80;;;2.90;99.90;;;;;;6196899;23;20436;-64
2023/12/06 09:30:46;;;;;;;47.63;20.50;;;2.90;99.90;;;;;;6210407;23;20448;-66
2023/12/06 09:33:13;;;;;;;48.13;21.27;;;3.00;99.90;;;;;;6211023;23;20401;-65
2023/12/06 09:35:40;;;;;;;43.20;21.57;;;3.00;99.90;;;;;;6211168;23;20433;-65
2023/12/06 09:38:08;;;;;;;38.73;18.37;;;2.90;99.90;;;;;;6211281;23;20401;-65
2023/12/06 09:40:36;;;;;;;39.40;19.73;;;2.90;99.90;;;;;;6211483;23;20393;-64
2023/12/06 09:43:03;;;;;;;41.13;20.37;;;2.90;99.90;;;;;;6212216;23;20389;-66
2023/12/06 09:45:31;;;;;;;43.13;19.17;;;3.00;99.90;;;;;;6210945;23;20405;-65
2023/12/06 09:47:58;;;;;;;49.70;21.47;;;3.00;99.90;;;;;;6211339;23;20420;-65
2023/12/06 09:50:25;;;;;;;45.57;21.00;;;2.90;99.90;;;;;;6210822;23;20467;-64
2023/12/06 09:52:53;;;;;;;37.17;18.70;;;2.90;99.90;;;;;;6210975;23;20460;-65
2023/12/06 09:55:24;;;;;;;40.77;20.97;;;2.90;99.90;;;;;;6211033;23;20388;-65
2023/12/06 09:57:56;;;;;;;44.07;21.37;;;2.90;99.90;;;;;;6211405;23;20389;-65
2023/12/06 10:00:23;;;;;;;39.67;20.20;;;2.90;99.90;;;;;;6211526;23;20409;-66
2023/12/06 10:02:56;;;;;;;52.93;24.73;;;2.90;99.90;;;;;;6211017;23;20389;-65
2023/12/06 10:05:23;;;;;;;37.73;20.50;;;2.90;99.90;;;;;;6210997;23;20389;-65
2023/12/06 10:07:54;;;;;;;39.70;19.47;;;3.00;99.90;;;;;;6211082;23;20431;-67
2023/12/06 10:10:28;;;;;;;45.23;22.43;;;3.00;99.90;;;;;;6211455;23;20425;-64
2023/12/06 10:12:56;;;;;;;42.33;21.50;;;3.00;99.90;;;;;;6211302;23;20392;-66
2023/12/06 10:15:25;;;;;;;44.00;21.27;;;3.00;99.90;;;;;;6211573;23;20433;-64
2023/12/06 10:17:55;;;;;;;33.63;17.90;;;3.10;99.90;;;;;;6212619;23;20404;-63
2023/12/06 10:20:25;;;;;;;41.40;19.87;;;3.10;99.90;;;;;;6211493;23;20436;-66
2023/12/06 10:22:51;;;;;;;42.43;19.03;;;3.10;99.90;;;;;;6211652;23;20390;-60
2023/12/06 10:25:18;;;;;;;40.57;17.43;;;3.10;99.90;;;;;;6209675;23;20432;-62
2023/12/06 10:27:47;;;;;;;39.30;19.17;;;3.10;99.90;;;;;;6209691;23;20405;-61
2023/12/06 10:30:22;;;;;;;36.70;18.90;;;3.30;99.90;;;;;;6210313;23;20429;-61
2023/12/06 10:32:52;;;;;;;35.97;20.07;;;3.20;99.90;;;;;;6210990;23;20812;-50
2023/12/06 10:35:22;;;;;;;37.27;18.60;;;3.30;99.90;;;;;;6209710;23;20444;-57
2023/12/06 10:38:03;;;;;;;39.93;18.63;;;3.30;99.90;;;;;;6210963;23;20381;-56
2023/12/06 10:40:31;;;;;;;37.60;18.40;;;3.40;99.90;;;;;;6209927;23;20795;-61
2023/12/06 10:43:03;;;;;;;31.20;19.30;;;3.30;99.90;;;;;;6209848;23;20483;-57
2023/12/06 10:45:32;;;;;;;40.10;22.67;;;3.30;99.90;;;;;;6210606;23;20429;-59
2023/12/06 10:48:04;;;;;;;36.73;17.00;;;3.30;99.90;;;;;;6212229;23;20404;-57
2023/12/06 10:50:34;;;;;;;43.27;20.80;;;3.30;99.90;;;;;;6212288;23;20444;-56
2023/12/06 10:53:01;;;;;;;39.00;17.80;;;3.30;99.90;;;;;;6211409;23;20424;-61
2023/12/06 10:55:30;;;;;;;30.90;19.00;;;3.30;99.90;;;;;;6210914;23;20416;-58
2023/12/06 10:58:01;;;;;;;39.67;20.50;;;3.30;99.90;;;;;;6210115;23;20424;-60
2023/12/06 11:00:28;;;;;;;40.57;19.37;;;3.60;99.90;;;;;;6209268;23;20836;-55
2023/12/06 11:02:55;;;;;;;37.77;18.63;;;3.60;99.90;;;;;;6209437;23;20440;-56
2023/12/06 11:05:25;;;;;;;35.70;19.00;;;3.60;99.90;;;;;;6209877;23;20440;-56
2023/12/06 11:08:09;;;;;;;41.40;19.20;;;3.50;99.90;;;;;;6209512;23;20432;-54
2023/12/06 11:10:48;;;;;;;38.30;19.27;;;3.40;99.90;;;;;;6210133;23;20409;-57
2023/12/06 11:13:30;;;;;;;42.23;19.67;;;3.40;99.90;;;;;;6209090;23;20400;-53
2023/12/06 11:16:08;;;;;;;45.27;22.23;;;3.30;99.90;;;;;;6209261;23;20417;-56
2023/12/06 11:18:45;;;;;;;49.90;21.30;;;3.30;99.90;;;;;;6209450;23;20396;-55
2023/12/06 11:21:13;;;;;;;37.40;19.37;;;3.30;99.90;;;;;;6209514;23;20412;-53
2023/12/06 11:23:45;;;;;;;37.00;19.40;;;3.30;99.90;;;;;;6209464;23;20465;-53
2023/12/06 11:26:12;;;;;;;30.73;19.83;;;3.30;99.90;;;;;;6208457;23;20396;-56
2023/12/06 11:28:41;;;;;;;44.70;20.93;;;3.30;99.90;;;;;;6209322;23;20423;-58
2023/12/06 11:31:10;;;;;;;39.47;20.40;;;3.30;99.90;;;;;;6209240;23;20463;-54
2023/12/06 11:33:38;;;;;;;40.37;20.63;;;3.30;99.90;;;;;;6208320;23;20388;-48
2023/12/06 11:36:05;;;;;;;42.77;19.00;;;3.30;99.90;;;;;;6209325;23;20432;-50
2023/12/06 11:38:33;;;;;;;43.53;21.30;;;3.30;99.90;;;;;;6209916;23;21152;-55
2023/12/06 11:41:00;;;;;;;41.07;21.83;;;3.30;99.90;;;;;;6209227;23;20480;-55
2023/12/06 11:43:32;;;;;;;48.30;18.93;;;3.30;99.90;;;;;;6209119;23;20389;-56
2023/12/06 11:46:04;;;;;;;35.93;19.30;;;3.30;99.90;;;;;;6179595;23;20425;-53
2023/12/06 11:48:34;;;;;;;41.30;19.27;;;3.20;99.90;;;;;;6180048;23;20536;-51
2023/12/06 11:51:01;;;;;;;34.80;19.40;;;3.20;99.90;;;;;;6180235;23;20433;-53
2023/12/06 11:53:28;;;;;;;41.90;20.83;;;3.30;99.90;;;;;;6179026;23;20453;-52
2023/12/06 11:55:55;;;;;;;41.50;20.53;;;3.20;99.90;;;;;;6179384;23;20425;-56
2023/12/06 11:58:29;;;;;;;43.60;18.83;;;3.20;99.90;;;;;;6179443;23;20437;-55
2023/12/06 12:00:58;;;;;;;42.37;21.57;;;3.20;99.90;;;;;;6179815;23;20386;-56
2023/12/06 12:03:27;;;;;;;36.60;19.90;;;3.20;99.90;;;;;;6179283;23;20397;-58
2023/12/06 12:05:55;;;;;;;40.70;21.10;;;3.20;99.90;;;;;;6179848;23;20394;-55
2023/12/06 12:08:22;;;;;;;49.17;20.27;;;3.20;99.90;;;;;;6179025;23;20406;-55
2023/12/06 12:10:50;;;;;;;38.67;18.40;;;3.20;99.90;;;;;;6179768;23;20445;-53
2023/12/06 12:13:18;;;;;;;37.37;19.17;;;3.20;99.90;;;;;;6179291;23;20733;-53
2023/12/06 12:15:52;;;;;;;42.90;21.37;;;3.30;99.90;;;;;;6178560;23;20401;-57
2023/12/06 12:18:21;;;;;;;36.23;17.53;;;3.20;99.90;;;;;;6178980;23;20398;-55
2023/12/06 12:20:50;;;;;;;48.10;18.27;;;3.30;99.90;;;;;;6178548;23;20425;-54
2023/12/06 12:23:17;;;;;;;41.90;21.40;;;3.30;99.90;;;;;;6179278;23;20406;-54
2023/12/06 12:25:47;;;;;;;38.43;20.07;;;3.30;99.90;;;;;;6179205;23;20410;-58
2023/12/06 12:28:17;;;;;;;36.20;20.43;;;3.30;99.90;;;;;;6178940;23;20517;-55
2023/12/06 12:30:44;;;;;;;41.87;20.37;;;3.30;99.90;;;;;;6178440;23;20465;-55
2023/12/06 12:33:12;;;;;;;37.30;17.77;;;3.30;99.90;;;;;;6178298;23;20422;-56
2023/12/06 12:35:39;;;;;;;46.57;20.97;;;3.30;99.90;;;;;;6179092;23;20406;-58
2023/12/06 12:38:08;;;;;;;41.10;21.43;;;3.40;99.90;;;;;;6178807;23;20433;-53
2023/12/06 12:40:36;;;;;;;40.53;21.23;;;3.30;99.90;;;;;;6179205;23;20694;-55